Time;durP1;ratioP1;P1;durP2;ratioP2;P2;SDS_P1;SDS_P2;PMS_P1;PMS_P2;Temp;Humidity;BMP_temperature;BMP_pressure;BME280_temperature;BME280_humidity;BME280_pressure;Samples;Min_cycle;Max_cycle;Signal;HPM_P1;HPM_P2
2021/06/22 00:01:45;;;;;;;3.92;1.20;;;;;;;23.03;47.78;101408.78;5072344;28;20021;-58
2021/06/22 00:04:10;;;;;;;4.05;1.48;;;;;;;23.01;47.70;101408.91;5071977;28;20033;-58
2021/06/22 00:06:45;;;;;;;5.88;1.80;;;;;;;23.02;47.74;101412.44;5073497;28;20027;-58
2021/06/22 00:09:13;;;;;;;3.58;1.38;;;;;;;23.01;47.81;101408.91;5072322;28;20036;-59
2021/06/22 00:11:38;;;;;;;3.30;1.40;;;;;;;23.00;47.67;101399.28;5073213;28;20035;-60
2021/06/22 00:14:03;;;;;;;4.47;2.05;;;;;;;22.98;47.87;101398.56;5072930;28;20024;-59
2021/06/22 00:16:33;;;;;;;3.40;1.33;;;;;;;22.98;47.82;101403.88;5072322;28;20017;-58
2021/06/22 00:18:58;;;;;;;3.88;1.25;;;;;;;22.98;47.83;101419.00;5072981;28;20103;-58
2021/06/22 00:21:23;;;;;;;3.42;1.40;;;;;;;22.96;47.64;101408.50;5072913;28;20056;-59
2021/06/22 00:23:48;;;;;;;3.42;1.42;;;;;;;22.96;47.77;101397.88;5071776;28;20062;-58
2021/06/22 00:26:14;;;;;;;3.42;1.40;;;;;;;22.96;47.81;101397.06;5072675;28;20449;-59
2021/06/22 00:28:39;;;;;;;4.03;1.60;;;;;;;22.95;47.87;101400.69;5072948;28;20150;-59
2021/06/22 00:31:04;;;;;;;3.40;1.35;;;;;;;22.94;47.63;101397.19;5071707;28;20322;-59
2021/06/22 00:33:30;;;;;;;3.78;1.52;;;;;;;22.93;47.46;101397.34;5073033;28;20052;-58
2021/06/22 00:35:55;;;;;;;3.45;1.40;;;;;;;22.90;47.47;101398.44;5071957;28;20111;-59
2021/06/22 00:38:20;;;;;;;4.22;1.58;;;;;;;22.92;47.51;101403.63;5072420;28;20417;-59
2021/06/22 00:40:46;;;;;;;4.68;1.48;;;;;;;22.91;47.64;101400.13;5073122;28;20070;-58
2021/06/22 00:43:14;;;;;;;3.58;1.38;;;;;;;22.90;47.53;101398.44;5071373;28;20039;-59
2021/06/22 00:45:39;;;;;;;3.47;1.45;;;;;;;22.90;47.52;101411.72;5072495;28;20059;-59
2021/06/22 00:48:08;;;;;;;5.90;1.83;;;;;;;22.89;47.67;101414.53;5072212;28;20380;-57
2021/06/22 00:50:33;;;;;;;3.75;1.50;;;;;;;22.88;47.30;101407.56;5071994;28;20116;-59
2021/06/22 00:53:00;;;;;;;3.90;1.50;;;;;;;22.89;47.29;101419.84;5072589;28;20111;-58
2021/06/22 00:55:29;;;;;;;3.78;1.40;;;;;;;22.88;47.28;101427.00;5072175;28;20024;-59
2021/06/22 00:58:14;;;;;;;5.18;1.42;;;;;;;22.88;47.25;101428.81;5071604;28;20044;-58
2021/06/22 01:00:40;;;;;;;5.60;1.65;;;;;;;22.88;47.43;101434.97;5071912;28;20043;-58
2021/06/22 01:03:06;;;;;;;4.85;1.90;;;;;;;22.85;47.30;101435.25;5072090;28;20036;-59
2021/06/22 01:05:33;;;;;;;3.47;1.50;;;;;;;22.86;47.33;101431.63;5071447;28;20086;-59
2021/06/22 01:07:59;;;;;;;5.68;1.90;;;;;;;22.85;47.21;101429.94;5072227;28;20032;-58
2021/06/22 01:10:26;;;;;;;4.30;1.55;;;;;;;22.83;47.25;101427.41;5071818;28;20025;-58
2021/06/22 01:12:53;;;;;;;4.03;1.60;;;;;;;22.85;47.16;101434.41;5071246;28;20023;-58
2021/06/22 01:15:21;;;;;;;5.57;1.95;;;;;;;22.85;47.31;101429.09;5071513;28;20021;-59
2021/06/22 01:17:51;;;;;;;3.75;1.45;;;;;;;22.83;47.19;101429.25;5072108;28;20078;-59
2021/06/22 01:20:16;;;;;;;4.75;1.73;;;;;;;22.81;47.60;101429.38;5069597;28;20074;-58
2021/06/22 01:22:46;;;;;;;5.07;1.50;;;;;;;22.81;47.06;101426.72;5071419;28;20420;-60
2021/06/22 01:25:12;;;;;;;4.60;1.50;;;;;;;22.82;47.14;101433.69;5070980;28;20048;-58
2021/06/22 01:27:37;;;;;;;5.05;1.60;;;;;;;22.81;47.13;101429.38;5072079;28;20033;-59
2021/06/22 01:30:05;;;;;;;5.72;1.92;;;;;;;22.80;46.94;101427.69;5071669;28;20028;-59
2021/06/22 01:32:32;;;;;;;3.05;1.60;;;;;;;22.78;47.25;101424.34;5070978;28;20063;-58
2021/06/22 01:34:58;;;;;;;5.05;2.05;;;;;;;22.76;46.98;101420.97;5071568;28;20468;-59
2021/06/22 01:37:24;;;;;;;3.65;1.58;;;;;;;22.77;46.94;101420.00;5071450;28;20039;-58
2021/06/22 01:39:50;;;;;;;3.55;1.40;;;;;;;22.77;46.97;101416.53;5070944;28;20107;-59
2021/06/22 01:42:15;;;;;;;4.28;1.63;;;;;;;22.76;47.03;101418.31;5071295;28;20048;-58
2021/06/22 01:44:42;;;;;;;6.55;1.80;;;;;;;22.76;47.13;101410.34;5071671;28;20531;-58
2021/06/22 01:47:07;;;;;;;3.53;1.50;;;;;;;22.76;46.90;101422.81;5070706;28;20030;-58
2021/06/22 01:49:33;;;;;;;5.13;1.75;;;;;;;22.75;46.85;101427.28;5071686;28;20024;-58
2021/06/22 01:52:02;;;;;;;5.15;1.80;;;;;;;22.74;46.92;101424.78;5071556;28;20379;-58
2021/06/22 01:54:27;;;;;;;4.65;1.60;;;;;;;22.72;46.82;101416.94;5070764;28;20017;-58
2021/06/22 01:56:53;;;;;;;5.05;1.58;;;;;;;22.73;46.80;101420.44;5071681;28;20028;-58
2021/06/22 01:59:19;;;;;;;5.05;1.92;;;;;;;22.72;46.96;101416.94;5071397;28;20029;-58
2021/06/22 02:01:44;;;;;;;5.05;1.80;;;;;;;22.71;46.87;101423.22;5070651;28;20029;-59
2021/06/22 02:04:11;;;;;;;4.70;1.90;;;;;;;22.71;46.97;101411.78;5071133;28;20036;-59
2021/06/22 02:06:37;;;;;;;4.28;1.60;;;;;;;22.70;46.83;101412.75;5071497;28;20021;-59
2021/06/22 02:09:05;;;;;;;4.30;1.60;;;;;;;22.70;46.77;101418.91;5070382;28;20036;-58
2021/06/22 02:11:31;;;;;;;6.13;1.70;;;;;;;22.68;46.89;101422.69;5071674;28;20024;-57
2021/06/22 02:13:56;;;;;;;4.13;1.70;;;;;;;22.69;46.78;101427.03;5071815;28;20464;-60
2021/06/22 02:16:22;;;;;;;3.63;1.60;;;;;;;22.68;46.89;101426.16;5070477;28;20021;-59
2021/06/22 02:18:47;;;;;;;4.00;1.98;;;;;;;22.64;46.69;101419.47;5071422;28;20498;-58
2021/06/22 02:21:13;;;;;;;3.50;1.50;;;;;;;22.68;46.86;101422.69;5071194;28;20137;-58
2021/06/22 02:23:39;;;;;;;4.82;2.10;;;;;;;22.66;46.67;101424.66;5070168;28;20048;-59
2021/06/22 02:26:06;;;;;;;4.55;1.80;;;;;;;22.66;46.66;101424.66;5072234;28;20028;-58
2021/06/22 02:28:32;;;;;;;6.03;1.75;;;;;;;22.65;46.65;101429.09;5074296;28;20025;-59
2021/06/22 02:30:58;;;;;;;4.57;1.85;;;;;;;22.64;46.90;101435.41;5075093;28;20031;-58
2021/06/22 02:33:25;;;;;;;4.50;2.00;;;;;;;22.64;46.85;101427.44;5074658;28;20029;-58
2021/06/22 02:35:50;;;;;;;6.13;2.00;;;;;;;22.63;46.61;101425.75;5073931;28;20450;-58
2021/06/22 02:38:16;;;;;;;4.75;1.77;;;;;;;22.61;46.63;101415.25;5074461;28;20141;-57
2021/06/22 02:40:41;;;;;;;4.32;1.75;;;;;;;22.60;46.77;101412.75;5074934;28;20025;-60
2021/06/22 02:43:07;;;;;;;6.78;2.10;;;;;;;22.60;46.65;101416.22;5073847;28;20029;-58
2021/06/22 02:45:34;;;;;;;6.47;2.13;;;;;;;22.60;46.66;101412.75;5074578;28;20071;-58
2021/06/22 02:48:00;;;;;;;4.85;1.83;;;;;;;22.59;46.68;101411.91;5074787;28;20027;-59
2021/06/22 02:50:26;;;;;;;4.03;1.67;;;;;;;22.58;46.82;101404.91;5073473;28;20028;-59
2021/06/22 02:52:51;;;;;;;4.50;1.90;;;;;;;22.59;46.57;101411.91;5074560;28;20480;-59
2021/06/22 02:55:35;;;;;;;4.50;1.98;;;;;;;22.56;46.59;101406.88;5074150;28;20033;-59
2021/06/22 02:58:03;;;;;;;4.55;2.00;;;;;;;22.57;46.73;101413.03;5074011;28;20105;-59
2021/06/22 03:00:30;;;;;;;4.43;1.70;;;;;;;22.56;46.75;101406.88;5074258;28;20413;-59
2021/06/22 03:02:56;;;;;;;5.40;2.00;;;;;;;22.55;46.53;101407.84;5074259;28;20035;-59
2021/06/22 03:05:22;;;;;;;5.47;2.08;;;;;;;22.54;46.54;101414.16;5073161;28;20415;-59
2021/06/22 03:07:48;;;;;;;6.25;2.00;;;;;;;22.55;46.63;101423.78;5074405;28;20051;-59
2021/06/22 03:10:15;;;;;;;6.20;2.20;;;;;;;22.54;46.58;101430.09;5073788;28;20039;-59
2021/06/22 03:12:42;;;;;;;4.32;1.90;;;;;;;22.54;46.67;101429.25;5073288;28;20029;-59
2021/06/22 03:15:10;;;;;;;5.30;2.03;;;;;;;22.54;46.66;101429.25;5073999;28;20116;-58
2021/06/22 03:17:36;;;;;;;4.65;2.17;;;;;;;22.52;46.71;101432.03;5073264;28;20491;-58
2021/06/22 03:20:06;;;;;;;5.68;2.13;;;;;;;22.53;46.43;101424.94;5073644;28;20033;-59
2021/06/22 03:22:31;;;;;;;5.97;2.42;;;;;;;22.53;46.52;101427.59;5074293;28;20086;-59
2021/06/22 03:24:57;;;;;;;3.47;2.00;;;;;;;22.53;46.51;101424.94;5072955;28;20053;-58
2021/06/22 03:27:22;;;;;;;4.70;1.85;;;;;;;22.51;46.53;101426.88;5073393;28;20357;-58
2021/06/22 03:29:48;;;;;;;4.18;1.90;;;;;;;22.52;46.50;101433.88;5073775;28;20017;-58
2021/06/22 03:32:13;;;;;;;6.72;2.20;;;;;;;22.51;46.57;101429.53;5072696;28;20553;-58
2021/06/22 03:34:39;;;;;;;4.07;1.85;;;;;;;22.51;46.59;101430.38;5073691;28;20426;-57
2021/06/22 03:37:05;;;;;;;5.15;2.13;;;;;;;22.48;46.53;101422.69;5073252;28;20428;-59
2021/06/22 03:39:33;;;;;;;6.32;2.00;;;;;;;22.50;46.06;101425.22;5073072;28;20059;-59
2021/06/22 03:42:02;;;;;;;4.80;1.92;;;;;;;22.50;46.57;101430.53;5073735;28;20089;-59
2021/06/22 03:44:28;;;;;;;5.70;2.00;;;;;;;22.45;46.52;101436.25;5073510;28;20119;-59
2021/06/22 03:46:53;;;;;;;3.83;1.88;;;;;;;22.49;46.48;101439.44;5072831;28;20485;-57
2021/06/22 03:49:18;;;;;;;4.07;1.83;;;;;;;22.46;46.47;101441.41;5073191;28;20128;-59
2021/06/22 03:51:44;;;;;;;4.65;2.10;;;;;;;22.48;46.53;101448.38;5073722;28;20040;-59
2021/06/22 03:54:10;;;;;;;5.05;1.80;;;;;;;22.45;46.68;101452.19;5072491;28;20021;-59
2021/06/22 03:56:35;;;;;;;5.55;2.10;;;;;;;22.46;46.40;101459.16;5073360;28;20117;-59
2021/06/22 03:59:00;;;;;;;4.82;2.03;;;;;;;22.46;46.53;101470.63;5073068;28;20468;-59
2021/06/22 04:01:26;;;;;;;4.70;1.98;;;;;;;22.45;46.43;101474.25;5071945;28;20103;-58
2021/06/22 04:03:51;;;;;;;3.75;1.70;;;;;;;22.44;46.30;101469.91;5072947;28;20032;-58
2021/06/22 04:06:16;;;;;;;5.17;1.90;;;;;;;22.45;46.46;101465.47;5072736;28;20043;-59
2021/06/22 04:08:42;;;;;;;3.55;1.80;;;;;;;22.43;46.34;101468.25;5072278;28;20677;-59
2021/06/22 04:11:08;;;;;;;5.68;1.85;;;;;;;22.38;46.37;101454.56;5072619;28;20472;-59
2021/06/22 04:13:34;;;;;;;4.38;1.80;;;;;;;22.43;46.28;101470.91;5072912;28;20028;-58
2021/06/22 04:16:02;;;;;;;5.22;2.10;;;;;;;22.43;46.40;101473.56;5072043;28;20029;-59
2021/06/22 04:18:27;;;;;;;5.60;1.85;;;;;;;22.42;46.45;101471.88;5072623;28;20099;-59
2021/06/22 04:20:56;;;;;;;5.75;2.00;;;;;;;22.42;46.48;101471.88;5072191;28;20048;-59
2021/06/22 04:23:21;;;;;;;4.70;1.90;;;;;;;22.40;46.37;101471.19;5072284;28;20056;-59
2021/06/22 04:25:49;;;;;;;4.30;1.80;;;;;;;22.41;46.62;101475.53;5072622;28;20119;-59
2021/06/22 04:28:17;;;;;;;4.50;1.90;;;;;;;22.39;46.38;101473.97;5071446;28;20407;-58
2021/06/22 04:30:43;;;;;;;5.20;2.15;;;;;;;22.40;46.35;101484.47;5072391;28;20021;-58
2021/06/22 04:33:08;;;;;;;4.97;2.13;;;;;;;22.39;46.51;101488.06;5072352;28;20024;-58
2021/06/22 04:35:38;;;;;;;4.30;2.03;;;;;;;22.40;46.41;101489.78;5071597;28;20467;-58
2021/06/22 04:38:07;;;;;;;4.88;1.98;;;;;;;22.39;46.37;101488.06;5072117;28;20103;-58
2021/06/22 04:40:35;;;;;;;4.75;1.98;;;;;;;22.39;46.08;101498.69;5072526;28;20031;-59
2021/06/22 04:43:01;;;;;;;3.83;1.80;;;;;;;22.40;46.46;101500.38;5071612;28;20078;-59
2021/06/22 04:45:27;;;;;;;5.38;2.08;;;;;;;22.39;46.51;101490.72;5072171;28;20024;-58
2021/06/22 04:47:54;;;;;;;6.07;2.20;;;;;;;22.37;46.19;101498.00;5072491;28;20100;-60
2021/06/22 04:50:19;;;;;;;4.40;2.00;;;;;;;22.39;46.29;101508.50;5070893;28;20027;-59
2021/06/22 04:52:45;;;;;;;3.83;1.60;;;;;;;22.38;46.20;101505.00;5072203;28;20020;-58
2021/06/22 04:55:14;;;;;;;5.33;2.47;;;;;;;22.37;46.48;101502.50;5071896;28;20016;-58
2021/06/22 04:57:41;;;;;;;4.63;1.95;;;;;;;22.38;46.00;101504.16;5071537;28;20356;-59
2021/06/22 05:00:07;;;;;;;5.05;1.92;;;;;;;22.36;46.37;101501.63;5072130;28;20095;-58
2021/06/22 05:02:33;;;;;;;5.32;1.80;;;;;;;22.37;46.34;101507.81;5072035;28;20111;-58
2021/06/22 05:04:59;;;;;;;4.68;2.28;;;;;;;22.36;46.34;101512.25;5071343;28;20107;-59
2021/06/22 05:07:24;;;;;;;5.55;2.13;;;;;;;22.36;46.44;101508.75;5071567;28;20071;-59
2021/06/22 05:09:49;;;;;;;4.70;2.00;;;;;;;22.35;46.46;101509.72;5072202;28;20442;-59
2021/06/22 05:12:14;;;;;;;3.77;1.90;;;;;;;22.35;46.22;101510.59;5070991;28;20277;-58
2021/06/22 05:14:40;;;;;;;4.78;1.90;;;;;;;22.33;46.37;101509.03;5071750;28;20277;-58
2021/06/22 05:17:05;;;;;;;2.88;1.60;;;;;;;22.33;46.41;101511.69;5071699;28;20375;-59
2021/06/22 05:19:33;;;;;;;4.28;2.20;;;;;;;22.34;46.43;101521.34;5071326;28;20115;-59
2021/06/22 05:21:59;;;;;;;5.00;1.83;;;;;;;22.34;46.32;101526.66;5072213;28;20438;-59
2021/06/22 05:24:24;;;;;;;3.58;1.90;;;;;;;22.33;46.44;101525.78;5070618;28;20068;-60
2021/06/22 05:26:49;;;;;;;3.88;1.55;;;;;;;22.28;46.22;101523.50;5071796;28;20021;-58
2021/06/22 05:29:17;;;;;;;4.90;2.03;;;;;;;22.33;46.47;101532.94;5071322;28;20052;-58
2021/06/22 05:31:43;;;;;;;5.00;2.00;;;;;;;22.31;46.36;101530.41;5071101;28;20025;-58
2021/06/22 05:34:08;;;;;;;6.28;2.05;;;;;;;22.32;46.44;101531.25;5071546;28;20555;-59
2021/06/22 05:36:33;;;;;;;4.35;1.80;;;;;;;22.31;46.48;101527.75;5071791;28;20379;-59
2021/06/22 05:38:59;;;;;;;5.28;1.88;;;;;;;22.31;46.29;101533.06;5070887;28;20016;-58
2021/06/22 05:41:24;;;;;;;4.80;2.03;;;;;;;22.32;46.39;101540.06;5071294;28;20035;-58
2021/06/22 05:43:52;;;;;;;4.15;1.63;;;;;;;22.32;46.46;101531.25;5071450;28;20045;-59
2021/06/22 05:46:17;;;;;;;5.55;1.88;;;;;;;22.31;46.59;101529.59;5070496;28;20029;-59
2021/06/22 05:48:43;;;;;;;5.45;1.92;;;;;;;22.30;46.38;101534.03;5071580;28;20021;-59
2021/06/22 05:51:08;;;;;;;3.97;1.90;;;;;;;22.28;46.45;101528.81;5071101;28;20104;-59
2021/06/22 05:53:33;;;;;;;5.63;1.98;;;;;;;22.29;46.50;101537.66;5070792;28;20281;-59
2021/06/22 05:55:58;;;;;;;3.73;1.83;;;;;;;22.27;46.31;101535.13;5071421;28;20028;-58
2021/06/22 05:58:24;;;;;;;4.43;1.90;;;;;;;22.28;46.78;101544.75;5071082;28;20679;-58
2021/06/22 06:00:49;;;;;;;4.80;2.05;;;;;;;22.28;46.47;101543.94;5073157;28;20466;-59
2021/06/22 06:03:14;;;;;;;4.38;1.80;;;;;;;22.28;46.57;101547.41;5075091;28;20119;-59
2021/06/22 06:05:42;;;;;;;5.20;1.92;;;;;;;22.27;46.56;101540.44;5075514;28;20020;-59
2021/06/22 06:08:08;;;;;;;4.15;1.70;;;;;;;22.28;46.42;101541.28;5074299;28;20035;-59
2021/06/22 06:10:33;;;;;;;5.10;1.98;;;;;;;22.26;46.45;101540.56;5075304;28;20024;-59
2021/06/22 06:12:59;;;;;;;4.00;1.80;;;;;;;22.28;46.56;101551.88;5075168;28;20031;-59
2021/06/22 06:15:24;;;;;;;3.95;1.60;;;;;;;22.28;46.57;101551.88;5074243;28;20033;-59
2021/06/22 06:17:49;;;;;;;4.95;2.03;;;;;;;22.27;46.46;101551.06;5075269;28;20325;-59
2021/06/22 06:20:16;;;;;;;5.55;2.13;;;;;;;22.27;46.58;101542.25;5075042;28;20056;-58
2021/06/22 06:22:43;;;;;;;4.30;2.00;;;;;;;22.22;46.59;101544.47;5074126;28;20028;-58
2021/06/22 06:25:13;;;;;;;4.30;1.85;;;;;;;22.27;46.52;101555.50;5074770;28;20021;-59
2021/06/22 06:27:48;;;;;;;5.38;2.17;;;;;;;22.27;46.72;101558.16;5074389;28;20032;-58
2021/06/22 06:30:22;;;;;;;4.95;2.20;;;;;;;22.27;46.58;101560.81;5074759;28;20024;-59
2021/06/22 06:32:49;;;;;;;4.28;1.90;;;;;;;22.26;46.57;101567.13;5075241;28;20086;-59
2021/06/22 06:35:16;;;;;;;4.40;2.08;;;;;;;22.23;46.61;101557.59;5073990;28;20028;-59
2021/06/22 06:37:41;;;;;;;4.85;1.80;;;;;;;22.23;46.43;101560.25;5074982;28;20384;-59
2021/06/22 06:40:08;;;;;;;4.65;2.00;;;;;;;22.21;46.73;101558.72;5074530;28;20037;-57
2021/06/22 06:42:34;;;;;;;4.60;2.08;;;;;;;22.20;46.63;101551.72;5074264;28;20085;-58
2021/06/22 06:44:59;;;;;;;4.40;1.80;;;;;;;22.20;46.61;101565.00;5074877;28;20032;-58
2021/06/22 06:47:33;;;;;;;5.80;2.00;;;;;;;22.19;46.78;101558.88;5074664;28;20373;-58
2021/06/22 06:49:59;;;;;;;4.43;1.83;;;;;;;22.22;46.92;101569.22;5074059;28;20027;-59
2021/06/22 06:52:25;;;;;;;4.78;1.95;;;;;;;22.23;46.95;101567.41;5074490;28;20439;-58
2021/06/22 06:54:50;;;;;;;5.70;2.00;;;;;;;22.25;46.87;101576.88;5074943;28;20064;-58
2021/06/22 06:57:16;;;;;;;3.97;1.90;;;;;;;22.26;47.05;101567.13;5073563;28;20380;-57
2021/06/22 06:59:41;;;;;;;5.43;1.90;;;;;;;22.28;47.05;101563.34;5074607;28;20058;-59
2021/06/22 07:02:07;;;;;;;5.80;1.95;;;;;;;22.30;47.04;101571.22;5074166;28;20349;-59
2021/06/22 07:04:35;;;;;;;5.13;2.50;;;;;;;22.31;47.16;101572.06;5073579;28;20030;-57
2021/06/22 07:07:01;;;;;;;3.95;1.83;;;;;;;22.32;47.01;101574.59;5074332;28;20020;-57
2021/06/22 07:09:26;;;;;;;5.07;2.10;;;;;;;22.33;47.12;101568.28;5074415;28;20462;-58
2021/06/22 07:11:53;;;;;;;5.18;2.20;;;;;;;22.34;47.17;101569.97;5072900;28;20028;-58
2021/06/22 07:14:18;;;;;;;4.80;1.88;;;;;;;22.34;47.27;101571.81;5074207;28;20033;-58
2021/06/22 07:16:47;;;;;;;5.28;1.95;;;;;;;22.34;47.38;101569.16;5073621;28;20112;-58
2021/06/22 07:19:13;;;;;;;5.03;2.05;;;;;;;22.33;47.36;101562.16;5073935;28;20020;-58
2021/06/22 07:21:38;;;;;;;5.18;2.22;;;;;;;22.34;47.47;101563.84;5074107;28;20020;-58
2021/06/22 07:24:04;;;;;;;5.53;2.23;;;;;;;22.34;47.41;101564.66;5072810;28;20901;-58
2021/06/22 07:26:29;;;;;;;3.90;1.92;;;;;;;22.35;47.34;101563.69;5074366;28;20621;-59
2021/06/22 07:28:54;;;;;;;5.78;2.28;;;;;;;22.36;47.18;101568.00;5075040;28;20041;-59
2021/06/22 07:31:19;;;;;;;5.20;2.35;;;;;;;22.34;47.68;101562.00;5084284;28;20055;-60
2021/06/22 07:33:49;;;;;;;4.95;2.10;;;;;;;22.35;47.40;101576.97;5085095;28;20540;-62
2021/06/22 07:36:14;;;;;;;4.45;2.33;;;;;;;22.35;47.46;101569.00;5074241;28;20028;-59
2021/06/22 07:38:40;;;;;;;4.18;2.22;;;;;;;22.36;47.39;101575.16;5073367;28;20384;-59
2021/06/22 07:41:05;;;;;;;6.00;2.50;;;;;;;22.37;47.59;101579.50;5074545;28;20032;-59
2021/06/22 07:43:30;;;;;;;7.00;2.53;;;;;;;22.39;47.41;101593.47;5074278;28;20089;-60
2021/06/22 07:45:56;;;;;;;5.57;2.35;;;;;;;22.41;47.08;101580.88;5073498;28;20270;-60
2021/06/22 07:48:21;;;;;;;6.13;2.20;;;;;;;22.41;47.30;101583.53;5074857;28;20491;-60
2021/06/22 07:50:46;;;;;;;6.13;2.40;;;;;;;22.41;47.11;101584.41;5075060;28;20036;-60
2021/06/22 07:53:12;;;;;;;6.88;2.55;;;;;;;22.42;47.31;101583.41;5074196;28;20330;-60
2021/06/22 07:55:38;;;;;;;5.03;2.10;;;;;;;22.45;47.01;101590.28;5075069;28;20031;-60
2021/06/22 07:58:07;;;;;;;4.50;2.17;;;;;;;22.45;47.32;101582.31;5074871;28;20017;-59
2021/06/22 08:00:42;;;;;;;5.30;2.60;;;;;;;22.45;47.35;101587.63;5073468;28;20059;-60
2021/06/22 08:03:14;;;;;;;5.03;2.22;;;;;;;22.44;47.20;101588.59;5073089;28;20035;-59
2021/06/22 08:05:41;;;;;;;6.25;2.50;;;;;;;22.45;47.34;101592.94;5073307;28;20353;-59
2021/06/22 08:08:07;;;;;;;5.32;2.60;;;;;;;22.46;47.33;101599.91;5072530;28;20029;-60
2021/06/22 08:10:33;;;;;;;5.75;2.45;;;;;;;22.44;47.23;101602.69;5073494;28;20024;-60
2021/06/22 08:12:59;;;;;;;6.68;2.40;;;;;;;22.44;47.20;101604.53;5072897;28;20044;-60
2021/06/22 08:15:26;;;;;;;5.00;2.78;;;;;;;22.43;47.45;101594.88;5072732;28;20079;-60
2021/06/22 08:17:54;;;;;;;5.78;2.83;;;;;;;22.43;47.45;101603.69;5073097;28;20032;-60
2021/06/22 08:20:21;;;;;;;4.95;2.53;;;;;;;22.44;47.41;101596.56;5072276;28;20024;-60
2021/06/22 08:22:52;;;;;;;5.65;2.97;;;;;;;22.44;47.28;101600.03;5072398;28;20344;-59
2021/06/22 08:25:18;;;;;;;6.03;2.75;;;;;;;22.43;47.32;101595.72;5072664;28;20150;-60
2021/06/22 08:27:43;;;;;;;4.93;2.60;;;;;;;22.41;47.40;101603.00;5072323;28;20035;-59
2021/06/22 08:30:09;;;;;;;5.50;3.10;;;;;;;22.42;47.30;101604.66;5072657;28;20020;-66
2021/06/22 08:32:34;;;;;;;4.47;2.78;;;;;;;22.43;47.45;101606.34;5072823;28;20024;-59
2021/06/22 08:35:00;;;;;;;8.07;2.95;;;;;;;22.43;47.17;101594.88;5072325;28;20083;-59
2021/06/22 08:37:28;;;;;;;5.40;2.53;;;;;;;22.44;47.43;101593.91;5072491;28;20469;-60
2021/06/22 08:39:54;;;;;;;5.75;2.55;;;;;;;22.44;47.43;101599.22;5072614;28;20337;-59
2021/06/22 08:42:24;;;;;;;5.10;2.40;;;;;;;22.42;47.37;101590.56;5071584;28;20032;-60
2021/06/22 08:44:50;;;;;;;6.25;2.70;;;;;;;22.44;47.41;101594.72;5072665;28;20024;-60
2021/06/22 08:47:24;;;;;;;4.97;2.70;;;;;;;22.41;47.54;101587.06;5072524;28;20064;-58
2021/06/22 08:49:56;;;;;;;5.47;3.00;;;;;;;22.45;47.44;101590.28;5072393;28;20554;-59
2021/06/22 08:52:24;;;;;;;5.57;2.85;;;;;;;22.48;47.54;101589.16;5072656;28;20052;-60
2021/06/22 08:54:49;;;;;;;5.95;2.70;;;;;;;22.46;47.32;101579.53;5072895;28;20020;-60
2021/06/22 08:57:18;;;;;;;5.43;2.80;;;;;;;22.48;47.29;101587.34;5072671;28;20029;-59
2021/06/22 08:59:44;;;;;;;6.28;2.75;;;;;;;22.48;47.32;101587.34;5073333;28;20029;-60
2021/06/22 09:02:09;;;;;;;4.60;2.70;;;;;;;22.51;47.48;101600.38;5074989;28;20048;-59
2021/06/22 09:04:35;;;;;;;5.20;3.03;;;;;;;22.48;47.36;101590.00;5072811;28;20082;-60
2021/06/22 09:07:00;;;;;;;5.80;3.17;;;;;;;22.48;47.00;101590.00;5073309;28;20416;-61
2021/06/22 09:09:40;;;;;;;6.25;3.53;;;;;;;22.45;47.14;101579.66;5071816;28;20028;-59
2021/06/22 09:12:10;;;;;;;5.43;3.55;;;;;;;22.44;46.79;101589.41;5073099;28;20024;-60
2021/06/22 09:14:41;;;;;;;6.07;3.03;;;;;;;22.46;46.83;101590.16;5073557;28;20066;-60
2021/06/22 09:17:34;;;;;;;5.32;3.00;;;;;;;22.48;47.01;101597.13;5073275;28;20365;-59
2021/06/22 09:19:59;;;;;;;6.25;3.50;;;;;;;22.46;46.99;101587.50;5074604;28;20054;-60
2021/06/22 09:22:28;;;;;;;5.70;3.23;;;;;;;22.45;46.98;101585.78;5072724;28;20100;-64
2021/06/22 09:25:11;;;;;;;5.50;3.33;;;;;;;22.46;47.18;101587.50;5072208;28;20642;-59
2021/06/22 09:27:51;;;;;;;6.00;3.55;;;;;;;22.46;47.18;101582.19;5073701;28;20092;-64
2021/06/22 09:30:36;;;;;;;6.88;3.90;;;;;;;22.48;46.91;101581.19;5072297;28;20012;-60
2021/06/22 09:33:16;;;;;;;5.53;3.65;;;;;;;22.49;46.51;101580.22;5072786;28;20033;-61
2021/06/22 09:35:42;;;;;;;8.43;4.22;;;;;;;22.50;46.89;101589.88;5073017;28;20109;-61
2021/06/22 09:38:08;;;;;;;7.07;3.83;;;;;;;22.50;46.13;101589.88;5073149;28;20027;-60
2021/06/22 09:40:36;;;;;;;7.45;4.22;;;;;;;22.51;46.46;101588.88;5073453;28;20021;-60
2021/06/22 09:43:01;;;;;;;9.50;4.10;;;;;;;22.50;46.25;101593.38;5074010;28;20099;-59
2021/06/22 09:45:29;;;;;;;6.00;4.20;;;;;;;22.46;45.75;101583.97;5072413;28;20124;-60
2021/06/22 09:48:04;;;;;;;7.50;4.40;;;;;;;22.44;45.62;101586.75;5073456;28;20036;-63
2021/06/22 09:50:48;;;;;;;8.45;4.55;;;;;;;22.41;45.80;101588.84;5073080;28;20044;-60
2021/06/22 09:53:30;;;;;;;8.15;4.20;;;;;;;22.41;45.69;101591.50;5071641;28;20029;-62
2021/06/22 09:56:05;;;;;;;6.40;4.35;;;;;;;22.39;45.88;101589.00;5073208;28;20068;-61
2021/06/22 09:58:43;;;;;;;7.15;4.32;;;;;;;22.36;45.80;101588.44;5072070;28;20028;-61
2021/06/22 10:01:33;;;;;;;7.35;5.22;;;;;;;22.36;45.72;101591.91;5072449;28;20119;-61
2021/06/22 10:04:34;;;;;;;7.60;4.75;;;;;;;22.33;45.64;101596.66;5072660;28;20135;-59
2021/06/22 10:07:00;;;;;;;9.98;5.28;;;;;;;22.31;45.74;101594.13;5049447;28;20037;-63
2021/06/22 10:09:30;;;;;;;7.10;4.88;;;;;;;22.34;45.82;101590.38;5053468;28;20442;-64
2021/06/22 10:12:01;;;;;;;7.32;4.35;;;;;;;22.34;45.55;101591.22;5073009;28;20024;-61
2021/06/22 10:14:33;;;;;;;6.63;4.60;;;;;;;22.34;45.55;101593.88;5072464;28;20119;-61
2021/06/22 10:17:00;;;;;;;7.00;4.40;;;;;;;22.34;45.79;101593.03;5072684;28;20043;-61
2021/06/22 10:19:30;;;;;;;7.28;5.03;;;;;;;22.34;45.74;101593.03;5072601;28;20048;-62
2021/06/22 10:21:56;;;;;;;6.88;5.30;;;;;;;22.35;45.55;101600.88;5072032;28;20086;-64
2021/06/22 10:24:23;;;;;;;7.50;4.85;;;;;;;22.34;45.55;101595.69;5071984;28;20059;-60
2021/06/22 10:26:50;;;;;;;7.70;5.65;;;;;;;22.35;45.42;101589.41;5071870;28;20041;-64
2021/06/22 10:29:21;;;;;;;8.05;5.50;;;;;;;22.35;45.53;101592.03;5072191;28;20025;-63
2021/06/22 10:31:56;;;;;;;6.93;5.75;;;;;;;22.34;45.27;101593.03;5073050;28;20200;-66
2021/06/22 10:34:22;;;;;;;7.78;5.50;;;;;;;22.33;45.19;101594.00;5072246;28;20035;-61
2021/06/22 10:36:55;;;;;;;7.18;5.30;;;;;;;22.32;45.01;101593.19;5072582;28;20032;-63
2021/06/22 10:39:47;;;;;;;8.68;5.55;;;;;;;22.33;45.04;101594.84;5072319;28;20041;-61
2021/06/22 10:42:13;;;;;;;6.97;5.53;;;;;;;22.33;45.04;101594.84;5071511;28;20036;-62
2021/06/22 10:44:40;;;;;;;10.43;6.00;;;;;;;22.34;45.18;101593.88;5071797;28;20028;-62
2021/06/22 10:47:27;;;;;;;7.88;5.90;;;;;;;22.35;45.03;101584.09;5072560;28;20149;-63
2021/06/22 10:50:23;;;;;;;7.85;5.63;;;;;;;22.34;44.94;101588.56;5074824;28;20032;-62
2021/06/22 10:52:51;;;;;;;8.75;6.00;;;;;;;22.35;44.82;101592.03;5075665;28;20024;-61
2021/06/22 10:55:31;;;;;;;8.35;5.93;;;;;;;22.36;44.77;101594.56;5074881;28;20024;-62
2021/06/22 10:57:56;;;;;;;7.60;5.60;;;;;;;22.35;44.82;101592.91;5075702;28;20035;-64
2021/06/22 11:00:21;;;;;;;9.23;5.97;;;;;;;22.34;44.62;101596.53;5074590;28;20020;-60
2021/06/22 11:03:18;;;;;;;8.05;5.80;;;;;;;22.36;44.76;101593.75;5074335;28;20031;-59
2021/06/22 11:06:03;;;;;;;7.38;5.80;;;;;;;22.36;44.56;101597.22;5075149;28;20082;-59
2021/06/22 11:08:30;;;;;;;10.77;5.72;;;;;;;22.36;44.57;101591.09;5074627;28;20027;-60
2021/06/22 11:10:55;;;;;;;9.43;5.70;;;;;;;22.36;44.54;101586.59;5073792;28;20036;-59
2021/06/22 11:13:58;;;;;;;8.60;5.95;;;;;;;22.39;44.48;101594.31;5074823;28;20094;-60
2021/06/22 11:16:26;;;;;;;12.85;6.70;;;;;;;22.39;44.62;101591.66;5073683;28;20103;-60
2021/06/22 11:19:00;;;;;;;8.70;6.28;;;;;;;22.41;44.48;101599.47;5074450;28;20100;-60
2021/06/22 11:21:38;;;;;;;;;;;;;;;22.40;44.44;101603.13;5074588;28;20480;-62
2021/06/22 11:24:15;;;;;;;8.98;5.82;;;;;;;22.40;44.57;101593.34;5073010;28;19916;-59
2021/06/22 11:26:41;;;;;;;6.95;5.70;;;;;;;22.43;44.44;101598.38;5074380;28;20047;-58
2021/06/22 11:29:08;;;;;;;9.88;6.28;;;;;;;22.44;44.32;101589.41;5074988;28;20020;-61